Time;durP1;ratioP1;P1;durP2;ratioP2;P2;SDS_P1;SDS_P2;PMS_P1;PMS_P2;Temp;Humidity;BMP_temperature;BMP_pressure;BME280_temperature;BME280_humidity;BME280_pressure;Samples;Min_cycle;Max_cycle;Signal;HPM_P1;HPM_P2
2022/04/04 00:00:52;;;;;;;4.97;4.67;;;;;;;1.56;82.71;100167.06;5098866;28;20208;-80
2022/04/04 00:03:19;;;;;;;6.50;6.00;;;;;;;1.52;84.02;100138.72;5100174;28;20250;-80
2022/04/04 00:05:45;;;;;;;4.47;4.17;;;;;;;1.57;83.73;100111.38;5099207;28;20226;-80
2022/04/04 00:08:12;;;;;;;4.63;4.30;;;;;;;1.58;83.64;100116.50;5099200;28;20204;-80
2022/04/04 00:10:38;;;;;;;5.33;4.90;;;;;;;1.50;84.63;100104.41;5099658;28;20207;-80
2022/04/04 00:13:05;;;;;;;4.93;4.53;;;;;;;1.49;84.60;100098.41;5100679;28;20224;-81
2022/04/04 00:15:33;;;;;;;5.57;5.17;;;;;;;1.38;85.27;100100.81;5099704;28;20262;-82
2022/04/04 00:18:05;;;;;;;5.10;4.67;;;;;;;1.42;85.19;100075.16;5099331;28;20260;-82
2022/04/04 00:20:32;;;;;;;4.83;4.43;;;;;;;1.38;84.92;100079.41;5104776;28;20539;-82
2022/04/04 00:22:58;;;;;;;5.37;5.03;;;;;;;1.36;84.69;100096.50;5101553;28;20232;-81
2022/04/04 00:25:25;;;;;;;5.37;5.07;;;;;;;1.32;85.26;100094.75;5087966;28;20204;-81
2022/04/04 00:27:51;;;;;;;5.47;5.07;;;;;;;1.42;85.09;100082.88;5092183;28;20570;-81
2022/04/04 00:30:18;;;;;;;5.00;4.70;;;;;;;1.39;84.22;100079.44;5099289;28;20204;-80
2022/04/04 00:32:46;;;;;;;5.13;4.73;;;;;;;1.42;84.29;100078.59;5098838;28;20230;-81
2022/04/04 00:35:12;;;;;;;5.20;4.80;;;;;;;1.39;84.28;100092.28;5098949;28;20290;-80
2022/04/04 00:37:39;;;;;;;5.50;5.17;;;;;;;1.41;84.15;100094.00;5098663;28;20227;-81
2022/04/04 00:40:06;;;;;;;5.33;4.93;;;;;;;1.41;84.11;100088.84;5098907;28;20205;-81
2022/04/04 00:42:33;;;;;;;5.70;5.20;;;;;;;1.46;84.03;100076.91;5098202;28;20732;-80
2022/04/04 00:45:00;;;;;;;5.90;5.50;;;;;;;1.47;84.28;100079.53;5097901;28;20204;-81
2022/04/04 00:47:26;;;;;;;5.93;5.53;;;;;;;1.49;85.26;100057.25;5098629;28;20228;-81
2022/04/04 00:49:54;;;;;;;6.63;6.13;;;;;;;1.56;85.56;100040.16;5085237;28;20204;-81
2022/04/04 00:52:20;;;;;;;6.03;5.53;;;;;;;1.64;85.25;100046.25;5079040;28;20197;-80
2022/04/04 00:54:47;;;;;;;5.57;5.17;;;;;;;1.64;84.86;100047.97;5079071;28;20338;-81
2022/04/04 00:57:17;;;;;;;5.80;5.40;;;;;;;1.62;85.11;100067.69;5079135;28;20224;-81
2022/04/04 00:59:44;;;;;;;6.43;6.03;;;;;;;1.69;85.19;100051.47;5079359;28;20238;-81
2022/04/04 01:02:11;;;;;;;6.30;5.80;;;;;;;1.72;84.94;100047.19;5084643;28;20205;-81
2022/04/04 01:04:37;;;;;;;6.27;5.87;;;;;;;1.66;85.69;100030.84;5077478;28;20221;-81
2022/04/04 01:07:05;;;;;;;6.00;5.50;;;;;;;1.73;85.98;100015.50;5078401;28;20204;-82
2022/04/04 01:09:32;;;;;;;6.40;5.90;;;;;;;1.74;85.69;100014.63;5078236;28;20205;-78
2022/04/04 01:12:03;;;;;;;6.90;6.40;;;;;;;1.72;86.11;100012.91;5078792;28;20683;-81
2022/04/04 01:14:29;;;;;;;5.67;5.27;;;;;;;1.77;86.19;100006.09;5078273;28;20221;-81
2022/04/04 01:16:56;;;;;;;6.23;5.83;;;;;;;1.56;85.85;100019.59;5078308;28;20220;-81
2022/04/04 01:19:22;;;;;;;6.70;6.10;;;;;;;1.64;86.28;99991.38;5087528;28;20360;-80
2022/04/04 01:21:49;;;;;;;6.40;5.90;;;;;;;1.68;85.86;100000.84;5085833;28;20197;-80
2022/04/04 01:24:18;;;;;;;6.50;5.97;;;;;;;1.74;85.10;100006.06;5077995;28;20225;-81
2022/04/04 01:26:46;;;;;;;6.53;5.93;;;;;;;1.70;85.02;100005.16;5078320;28;20204;-81
2022/04/04 01:29:13;;;;;;;6.30;5.90;;;;;;;1.55;87.27;99981.88;5077800;28;20205;-80
2022/04/04 01:31:40;;;;;;;5.67;5.27;;;;;;;1.57;86.07;99975.88;5078261;28;20555;-80
2022/04/04 01:34:06;;;;;;;7.00;6.40;;;;;;;1.61;85.12;99991.38;5077267;28;20224;-81
2022/04/04 01:36:32;;;;;;;6.63;5.80;;;;;;;1.58;85.78;99993.03;5077628;28;20583;-81
2022/04/04 01:38:59;;;;;;;7.00;6.43;;;;;;;1.59;85.77;99986.19;5076833;28;20201;-80
2022/04/04 01:41:27;;;;;;;6.47;5.97;;;;;;;1.65;85.93;99996.53;5077778;28;20285;-79
2022/04/04 01:43:53;;;;;;;6.40;6.00;;;;;;;1.70;85.34;99992.28;5077291;28;20232;-83
2022/04/04 01:46:26;;;;;;;6.93;6.33;;;;;;;1.71;85.22;100001.75;5077272;28;20239;-81
2022/04/04 01:48:54;;;;;;;6.40;5.90;;;;;;;1.53;85.11;99999.84;5081598;28;20272;-80
2022/04/04 01:51:21;;;;;;;6.60;6.17;;;;;;;1.56;85.15;99983.59;5088619;28;20199;-79
2022/04/04 01:53:48;;;;;;;6.80;6.30;;;;;;;1.56;85.81;99978.44;5096929;28;20236;-80
2022/04/04 01:56:15;;;;;;;5.80;5.40;;;;;;;1.57;85.79;99963.03;5097592;28;20212;-80
2022/04/04 01:58:43;;;;;;;6.20;5.70;;;;;;;1.65;85.28;99951.97;5097244;28;20710;-81
2022/04/04 02:01:11;;;;;;;6.27;5.70;;;;;;;1.64;86.25;99957.94;5097227;28;20249;-81
2022/04/04 02:03:38;;;;;;;6.60;6.10;;;;;;;1.59;86.62;99933.03;5096350;28;20253;-79
2022/04/04 02:06:05;;;;;;;6.80;6.20;;;;;;;1.60;86.40;99931.31;5097310;28;20208;-81
2022/04/04 02:08:32;;;;;;;6.93;6.43;;;;;;;1.69;85.49;99933.13;5097337;28;20196;-80
2022/04/04 02:10:59;;;;;;;7.40;6.87;;;;;;;1.70;85.63;99932.28;5098045;28;20700;-81
2022/04/04 02:13:26;;;;;;;8.53;7.83;;;;;;;1.76;85.51;99920.34;5097020;28;20597;-81
2022/04/04 02:15:54;;;;;;;8.47;7.77;;;;;;;1.81;85.89;99911.78;5095519;28;20576;-80
2022/04/04 02:18:21;;;;;;;8.93;8.13;;;;;;;1.85;85.83;99892.94;5097169;28;20224;-80
2022/04/04 02:20:48;;;;;;;9.23;8.63;;;;;;;1.97;85.99;99898.19;5084149;28;20277;-79
2022/04/04 02:23:17;;;;;;;10.33;9.53;;;;;;;2.02;85.30;99899.06;5077258;28;20281;-82
2022/04/04 02:25:44;;;;;;;9.63;8.80;;;;;;;2.05;85.63;99900.81;5076790;28;20612;-79
2022/04/04 02:28:10;;;;;;;10.70;9.80;;;;;;;2.07;85.47;99904.25;5076159;28;20219;-81
2022/04/04 02:30:36;;;;;;;10.93;10.03;;;;;;;2.03;85.73;99910.25;5077329;28;20667;-81
2022/04/04 02:33:04;;;;;;;12.33;10.50;;;;;;;2.09;86.09;99900.84;5077080;28;20226;-81
2022/04/04 02:35:31;;;;;;;10.17;9.30;;;;;;;2.13;85.69;99899.16;5076415;28;20216;-80
2022/04/04 02:37:57;;;;;;;11.10;10.30;;;;;;;2.15;85.47;99897.44;5077397;28;20278;-79
2022/04/04 02:40:24;;;;;;;10.50;9.70;;;;;;;2.13;85.34;99902.56;5076919;28;20209;-81
2022/04/04 02:42:50;;;;;;;10.27;9.43;;;;;;;2.16;84.55;99906.88;5076204;28;20225;-82
2022/04/04 02:45:17;;;;;;;9.67;8.87;;;;;;;2.17;85.06;99912.03;5076656;28;20208;-82
2022/04/04 02:47:43;;;;;;;11.30;10.30;;;;;;;2.23;84.86;99910.38;5076904;28;20208;-81
2022/04/04 02:50:12;;;;;;;11.40;10.50;;;;;;;2.23;84.11;99913.81;5076761;28;20205;-79
2022/04/04 02:52:39;;;;;;;10.40;9.60;;;;;;;2.27;84.40;99912.13;5096621;28;20220;-79
2022/04/04 02:57:47;;;;;;;10.10;9.20;;;;;;;2.33;83.73;99918.16;5094960;28;20326;-81
2022/04/04 03:00:15;;;;;;;10.53;9.73;;;;;;;2.32;83.56;99929.31;5096836;28;20253;-78
2022/04/04 03:02:41;;;;;;;11.17;10.07;;;;;;;2.08;84.50;99909.44;5097213;28;20314;-82
2022/04/04 03:05:08;;;;;;;10.60;9.80;;;;;;;2.13;84.59;99899.16;5095715;28;20200;-81
2022/04/04 03:07:36;;;;;;;10.27;9.47;;;;;;;2.19;84.60;99889.75;5096988;28;20208;-81
2022/04/04 03:10:02;;;;;;;11.60;10.80;;;;;;;2.24;84.05;99899.19;5096144;28;20226;-81
2022/04/04 03:12:29;;;;;;;12.33;11.40;;;;;;;2.20;83.36;99893.19;5096859;28;20212;-80
2022/04/04 03:14:55;;;;;;;12.87;11.93;;;;;;;2.17;83.10;99898.31;5095736;28;20233;-82
2022/04/04 03:17:21;;;;;;;13.27;12.17;;;;;;;2.08;84.65;99893.09;5096976;28;20206;-80
2022/04/04 03:19:48;;;;;;;12.70;11.70;;;;;;;2.08;83.91;99885.38;5087790;28;20200;-80
2022/04/04 03:22:14;;;;;;;13.30;12.20;;;;;;;2.10;83.93;99892.28;5096122;28;20208;-78
2022/04/04 03:24:42;;;;;;;14.43;13.27;;;;;;;1.89;84.76;99880.09;5096337;28;20303;-81
2022/04/04 03:27:13;;;;;;;13.83;12.83;;;;;;;1.97;84.63;99865.56;5097919;28;20208;-81
2022/04/04 03:29:39;;;;;;;13.80;12.63;;;;;;;2.07;84.50;99857.91;5100583;28;20670;-80
2022/04/04 03:32:07;;;;;;;14.43;13.33;;;;;;;1.94;84.20;99852.72;5100044;28;20233;-80
2022/04/04 03:34:33;;;;;;;15.77;14.57;;;;;;;2.01;84.89;99848.44;5099340;28;20224;-81
2022/04/04 03:37:00;;;;;;;16.27;14.90;;;;;;;2.03;84.38;99844.16;5099575;28;20679;-81
2022/04/04 03:39:26;;;;;;;15.33;14.23;;;;;;;2.06;83.63;99843.31;5099633;28;20770;-81
2022/04/04 03:41:54;;;;;;;15.00;13.83;;;;;;;2.13;84.05;99838.22;5099905;28;20212;-81
2022/04/04 03:44:20;;;;;;;16.00;14.70;;;;;;;2.17;83.01;99851.97;5099195;28;20228;-81
2022/04/04 03:46:47;;;;;;;14.73;13.47;;;;;;;2.18;82.94;99857.13;5099075;28;20659;-80
2022/04/04 03:49:13;;;;;;;15.03;13.93;;;;;;;2.10;82.88;99845.94;5091032;28;20196;-81
2022/04/04 03:51:39;;;;;;;14.37;12.97;;;;;;;1.97;83.76;99844.13;5080178;28;20208;-79
2022/04/04 03:54:07;;;;;;;14.67;13.57;;;;;;;1.96;83.46;99822.69;5083846;28;20263;-82
2022/04/04 03:56:34;;;;;;;13.53;12.53;;;;;;;2.02;84.02;99819.25;5081632;28;20204;-80
2022/04/04 03:59:01;;;;;;;13.43;12.33;;;;;;;2.00;83.11;99828.69;5083846;28;20224;-78
2022/04/04 04:01:29;;;;;;;13.03;11.87;;;;;;;2.03;82.83;99817.56;5079473;28;20205;-81
2022/04/04 04:03:56;;;;;;;12.23;11.20;;;;;;;2.06;82.95;99835.59;5078815;28;20323;-80
2022/04/04 04:06:22;;;;;;;12.37;11.30;;;;;;;2.09;82.26;99835.63;5079987;28;20212;-81
2022/04/04 04:08:49;;;;;;;11.03;10.23;;;;;;;2.10;81.95;99830.50;5079180;28;20632;-79
2022/04/04 04:11:17;;;;;;;11.30;10.50;;;;;;;2.06;82.56;99833.03;5079029;28;20204;-79
2022/04/04 04:13:44;;;;;;;11.23;10.33;;;;;;;2.03;82.17;99831.31;5079253;28;20261;-82
2022/04/04 04:16:13;;;;;;;11.37;10.43;;;;;;;1.91;82.97;99824.38;5079406;28;20262;-80
2022/04/04 04:18:40;;;;;;;10.83;10.07;;;;;;;1.96;82.87;99824.38;5079550;28;20224;-81
2022/04/04 04:21:08;;;;;;;10.87;10.07;;;;;;;2.07;83.07;99807.28;5079378;28;20246;-81
2022/04/04 04:23:35;;;;;;;11.53;10.57;;;;;;;2.04;82.99;99811.56;5079028;28;20227;-80
2022/04/04 04:26:01;;;;;;;11.47;10.57;;;;;;;1.92;82.66;99810.66;5079374;28;20668;-81
2022/04/04 04:28:28;;;;;;;10.40;9.60;;;;;;;1.96;82.88;99794.38;5078971;28;20737;-80
2022/04/04 04:30:54;;;;;;;12.90;11.47;;;;;;;1.96;83.26;99791.81;5079025;28;20201;-81
2022/04/04 04:33:22;;;;;;;11.60;10.80;;;;;;;1.96;82.47;99796.06;5079240;28;20229;-81
2022/04/04 04:35:48;;;;;;;13.57;12.43;;;;;;;2.02;82.67;99790.94;5078253;28;20208;-81
2022/04/04 04:38:15;;;;;;;13.07;12.07;;;;;;;1.94;82.61;99787.47;5078173;28;20229;-80
2022/04/04 04:40:41;;;;;;;13.67;12.47;;;;;;;1.98;83.11;99781.50;5078905;28;20234;-81
2022/04/04 04:43:08;;;;;;;12.97;11.97;;;;;;;1.97;82.36;99775.50;5078299;28;20228;-81
2022/04/04 04:45:34;;;;;;;14.27;13.20;;;;;;;2.02;82.40;99778.09;5078610;28;20209;-80
2022/04/04 04:48:01;;;;;;;13.97;12.83;;;;;;;1.99;82.04;99780.66;5078339;28;20205;-80
2022/04/04 04:50:29;;;;;;;13.33;12.33;;;;;;;2.06;81.95;99781.53;5088629;28;20249;-80
2022/04/04 04:52:56;;;;;;;14.23;13.13;;;;;;;2.11;81.60;99777.28;5098412;28;20655;-80
2022/04/04 04:55:25;;;;;;;13.50;12.40;;;;;;;2.13;81.68;99776.44;5098274;28;20212;-80
2022/04/04 04:57:52;;;;;;;12.80;11.90;;;;;;;2.12;81.64;99789.28;5097586;28;20200;-81
2022/04/04 05:00:22;;;;;;;12.70;11.70;;;;;;;2.16;81.90;99791.91;5082017;28;20573;-81
2022/04/04 05:03:24;;;;;;;12.10;11.20;;;;;;;2.10;81.68;99786.72;5078689;28;20706;-81
2022/04/04 05:05:37;;;;;;;11.87;10.97;;;;;;;2.19;81.18;99791.91;5078563;28;20742;-81
2022/04/04 05:08:04;;;;;;;12.57;11.67;;;;;;;2.24;80.30;99793.63;5077705;28;20268;-81
2022/04/04 05:10:30;;;;;;;12.60;11.50;;;;;;;2.20;80.31;99797.94;5078008;28;20204;-82
2022/04/04 05:12:57;;;;;;;11.67;10.77;;;;;;;2.19;80.06;99798.78;5077660;28;20601;-82
2022/04/04 05:15:23;;;;;;;11.30;10.30;;;;;;;2.29;80.10;99802.25;5077963;28;20674;-82
2022/04/04 05:17:50;;;;;;;10.80;10.00;;;;;;;2.30;80.13;99804.84;5096932;28;20220;-80
2022/04/04 05:20:17;;;;;;;11.63;10.50;;;;;;;2.22;79.44;99821.97;5097809;28;20205;-80
2022/04/04 05:22:44;;;;;;;11.27;10.37;;;;;;;2.18;80.11;99809.91;5088087;28;20224;-80
2022/04/04 05:25:12;;;;;;;10.73;9.93;;;;;;;2.27;79.67;99802.25;5077473;28;20250;-81
2022/04/04 05:27:39;;;;;;;10.23;9.43;;;;;;;2.24;79.65;99809.97;5077795;28;20254;-81
2022/04/04 05:30:06;;;;;;;9.97;9.20;;;;;;;2.35;79.01;99805.69;5085702;28;20196;-81
2022/04/04 05:32:32;;;;;;;9.13;8.43;;;;;;;2.41;78.55;99811.75;5077592;28;20213;-82
2022/04/04 05:34:58;;;;;;;9.23;8.43;;;;;;;2.40;78.42;99821.19;5076919;28;20675;-81
2022/04/04 05:37:25;;;;;;;8.97;8.17;;;;;;;2.48;77.91;99829.81;5077868;28;20204;-81
2022/04/04 05:39:53;;;;;;;9.13;8.33;;;;;;;2.49;77.47;99835.81;5076901;28;20231;-81
2022/04/04 05:42:19;;;;;;;8.53;7.83;;;;;;;2.48;77.56;99849.53;5077223;28;20282;-81
2022/04/04 05:44:45;;;;;;;8.87;7.47;;;;;;;2.48;76.88;99850.41;5076891;28;20622;-81
2022/04/04 05:47:13;;;;;;;7.67;7.17;;;;;;;2.54;76.90;99855.59;5076937;28;20262;-81
2022/04/04 05:49:40;;;;;;;8.17;7.57;;;;;;;2.64;76.68;99859.06;5076456;28;20201;-79
2022/04/04 05:52:07;;;;;;;8.40;7.80;;;;;;;2.72;76.95;99859.97;5076926;28;20227;-80
2022/04/04 05:54:53;;;;;;;7.80;7.20;;;;;;;2.63;75.86;99864.22;5101059;22;20492;-78
2022/04/04 05:57:21;;;;;;;9.97;7.40;;;;;;;2.69;75.64;99867.66;5096255;28;20227;-79
2022/04/04 05:59:48;;;;;;;7.87;7.27;;;;;;;2.66;76.20;99872.81;5098115;28;20224;-77
2022/04/04 06:02:14;;;;;;;7.73;7.13;;;;;;;2.76;75.57;99873.72;5100219;28;20305;-81
2022/04/04 06:04:40;;;;;;;10.87;9.97;;;;;;;2.81;75.47;99871.16;5099758;28;20250;-79
2022/04/04 06:07:07;;;;;;;7.30;6.67;;;;;;;2.76;74.34;99886.59;5105265;28;20678;-78
2022/04/04 06:09:33;;;;;;;7.70;6.87;;;;;;;2.80;73.29;99900.38;5109714;28;20196;-78
2022/04/04 06:11:59;;;;;;;8.23;7.53;;;;;;;2.91;73.19;99907.25;5102734;28;20291;-81
2022/04/04 06:14:27;;;;;;;8.20;7.43;;;;;;;2.94;73.36;99903.84;5101577;28;20196;-79
2022/04/04 06:16:53;;;;;;;8.87;7.93;;;;;;;3.04;72.60;99915.06;5100472;28;20192;-79
2022/04/04 06:19:20;;;;;;;7.87;6.97;;;;;;;3.09;72.32;99906.47;5100560;28;20222;-79
2022/04/04 06:21:46;;;;;;;9.40;7.47;;;;;;;3.07;70.94;99925.34;5100420;28;20208;-79
2022/04/04 06:24:12;;;;;;;8.27;7.67;;;;;;;3.14;70.70;99937.44;5099455;28;20618;-79
2022/04/04 06:26:39;;;;;;;8.20;7.47;;;;;;;3.16;69.90;99943.44;5100074;28;20208;-79
2022/04/04 06:29:09;;;;;;;7.50;6.90;;;;;;;3.21;69.21;99962.41;5100409;28;20195;-79
2022/04/04 06:31:38;;;;;;;8.23;7.53;;;;;;;3.22;70.04;99964.09;5099292;28;20204;-82
2022/04/04 06:34:05;;;;;;;7.53;6.83;;;;;;;3.31;69.80;99969.28;5099735;28;20234;-81
2022/04/04 06:36:31;;;;;;;8.23;7.53;;;;;;;3.34;69.40;99961.53;5097418;28;20224;-81
2022/04/04 06:38:58;;;;;;;7.27;6.53;;;;;;;3.42;69.79;99964.16;5098062;28;20231;-81
2022/04/04 06:41:25;;;;;;;7.67;7.07;;;;;;;3.46;69.17;99967.59;5098936;28;20204;-81
2022/04/04 06:43:52;;;;;;;7.27;6.53;;;;;;;3.45;68.19;99971.91;5098865;28;20253;-82
2022/04/04 06:46:19;;;;;;;7.37;6.60;;;;;;;3.51;68.05;99981.41;5098803;28;20250;-82
2022/04/04 06:48:51;;;;;;;8.07;6.77;;;;;;;3.51;68.19;99977.09;5098413;28;20766;-82
2022/04/04 06:51:17;;;;;;;7.20;6.27;;;;;;;3.51;67.84;99986.56;5098190;28;20271;-82
2022/04/04 06:53:45;;;;;;;8.50;7.47;;;;;;;3.62;67.92;99977.09;5097303;28;20204;-80
2022/04/04 06:56:11;;;;;;;7.07;6.43;;;;;;;3.72;67.61;99981.41;5097212;28;20240;-81
2022/04/04 06:58:38;;;;;;;6.87;6.37;;;;;;;3.85;67.12;99984.03;5097204;28;20526;-82
2022/04/04 07:01:04;;;;;;;6.40;5.87;;;;;;;3.93;67.14;99975.41;5097621;28;20567;-81
2022/04/04 07:03:31;;;;;;;5.93;5.50;;;;;;;3.85;65.42;100012.44;5101426;28;20204;-81
2022/04/04 07:05:59;;;;;;;6.60;6.03;;;;;;;3.93;66.26;100023.63;5101883;28;20242;-81
2022/04/04 07:08:28;;;;;;;6.40;5.90;;;;;;;4.02;65.70;100017.59;5101321;28;20200;-82
2022/04/04 07:10:54;;;;;;;6.83;6.23;;;;;;;3.96;64.65;100039.09;5101772;28;20211;-82
2022/04/04 07:13:21;;;;;;;6.83;6.33;;;;;;;3.96;64.77;100047.72;5101639;28;20208;-82
2022/04/04 07:15:47;;;;;;;6.23;5.63;;;;;;;4.01;64.55;100045.16;5101033;28;20262;-81
2022/04/04 07:18:14;;;;;;;6.77;6.10;;;;;;;4.07;63.67;100037.41;5101450;28;20617;-81
2022/04/04 07:20:40;;;;;;;5.97;5.57;;;;;;;4.04;62.69;100068.38;5097210;28;20707;-81
2022/04/04 07:23:08;;;;;;;7.07;6.27;;;;;;;4.14;63.22;100066.66;5096675;28;20192;-82
2022/04/04 07:25:36;;;;;;;6.87;6.27;;;;;;;4.15;63.19;100058.06;5101688;28;20220;-82
2022/04/04 07:28:03;;;;;;;6.13;5.63;;;;;;;4.07;62.76;100078.72;5101677;28;20295;-84
2022/04/04 07:30:30;;;;;;;6.27;5.77;;;;;;;4.03;62.98;100084.75;5100409;28;20249;-80
2022/04/04 07:32:56;;;;;;;5.93;5.43;;;;;;;4.13;63.19;100059.81;5091851;28;20284;-82
2022/04/04 07:35:23;;;;;;;6.30;5.80;;;;;;;4.12;63.22;100071.84;5080494;28;20232;-82
2022/04/04 07:37:51;;;;;;;6.43;5.93;;;;;;;4.18;62.74;100084.78;5081428;28;20227;-82
2022/04/04 07:40:20;;;;;;;5.97;5.47;;;;;;;4.33;63.12;100060.66;5081939;28;20278;-82
2022/04/04 07:42:47;;;;;;;5.93;5.43;;;;;;;4.35;62.35;100076.19;5082865;28;20201;-82
2022/04/04 07:45:16;;;;;;;5.60;5.20;;;;;;;4.37;62.00;100075.31;5079684;28;20236;-81
2022/04/04 07:47:52;;;;;;;6.07;5.60;;;;;;;4.44;62.37;100076.19;5079186;28;20205;-78
2022/04/04 07:50:20;;;;;;;5.97;5.47;;;;;;;4.34;61.37;100095.09;5082938;28;20262;-80
2022/04/04 07:52:49;;;;;;;5.90;5.40;;;;;;;4.33;61.63;100103.72;5079021;28;20212;-80
2022/04/04 07:55:16;;;;;;;5.93;5.53;;;;;;;4.32;62.00;100109.75;5077839;28;20232;-80
2022/04/04 07:57:44;;;;;;;5.90;5.40;;;;;;;4.23;60.80;100100.28;5090054;28;20200;-80
2022/04/04 08:00:14;;;;;;;6.57;5.77;;;;;;;4.36;61.53;100088.22;5098976;28;20220;-81
2022/04/04 08:02:41;;;;;;;6.27;5.77;;;;;;;4.44;60.61;100080.47;5089420;28;20205;-80
2022/04/04 08:05:08;;;;;;;5.77;5.37;;;;;;;4.43;60.82;100104.59;5086388;28;20220;-81
2022/04/04 08:07:36;;;;;;;5.83;5.43;;;;;;;4.42;60.81;100098.59;5092385;28;20200;-81
2022/04/04 08:10:02;;;;;;;7.33;6.20;;;;;;;4.46;59.97;100089.97;5087860;28;20227;-80
2022/04/04 08:12:30;;;;;;;6.50;6.00;;;;;;;4.54;60.18;100097.72;5095493;28;20204;-82
2022/04/04 08:14:58;;;;;;;6.60;6.03;;;;;;;4.53;59.71;100096.00;5095028;28;20266;-81
2022/04/04 08:17:25;;;;;;;6.57;6.00;;;;;;;4.58;59.92;100094.28;5099453;28;20208;-81
2022/04/04 08:19:51;;;;;;;7.73;6.93;;;;;;;4.65;60.16;100088.22;5099907;28;20224;-81
2022/04/04 08:22:18;;;;;;;6.83;6.30;;;;;;;4.73;59.41;100103.75;5101727;28;20204;-82
2022/04/04 08:24:45;;;;;;;6.63;6.03;;;;;;;4.84;59.42;100107.19;5099996;28;20223;-82
2022/04/04 08:27:12;;;;;;;6.37;5.87;;;;;;;4.62;58.33;100119.25;5103340;28;20208;-79
2022/04/04 08:29:40;;;;;;;8.27;6.73;;;;;;;4.70;59.07;100117.53;5100957;28;20615;-80
2022/04/04 08:32:08;;;;;;;6.70;6.10;;;;;;;4.85;59.35;100113.22;5101389;28;20234;-80
2022/04/04 08:34:35;;;;;;;7.17;6.37;;;;;;;5.02;59.18;100102.84;5100386;28;20616;-80
2022/04/04 08:37:02;;;;;;;5.60;5.20;;;;;;;4.95;58.38;100117.50;5098788;28;20339;-80
2022/04/04 08:39:31;;;;;;;6.80;5.93;;;;;;;5.02;58.38;100087.34;5096027;28;20232;-80
2022/04/04 08:42:02;;;;;;;6.70;6.07;;;;;;;5.11;57.35;100102.81;5084516;28;20235;-80
2022/04/04 08:44:36;;;;;;;6.77;6.07;;;;;;;5.16;56.98;100143.34;5083655;28;20236;-78
2022/04/04 08:47:03;;;;;;;5.33;4.93;;;;;;;5.10;55.80;100145.94;5090453;28;20195;-80
2022/04/04 08:49:34;;;;;;;5.57;5.07;;;;;;;5.16;56.06;100174.41;5101824;28;20245;-79
2022/04/04 08:52:07;;;;;;;4.93;4.63;;;;;;;5.14;55.60;100164.91;5104539;28;20204;-80
2022/04/04 08:54:37;;;;;;;4.70;4.40;;;;;;;5.27;56.61;100152.81;5102404;28;20239;-78
2022/04/04 08:57:11;;;;;;;4.73;4.33;;;;;;;5.24;54.05;100173.53;5101309;28;20214;-79
2022/04/04 08:59:43;;;;;;;5.37;4.63;;;;;;;5.36;55.70;100176.09;5100237;28;20211;-80
2022/04/04 09:02:12;;;;;;;4.73;4.33;;;;;;;5.37;54.54;100186.44;5102036;28;20542;-79
2022/04/04 09:04:42;;;;;;;4.57;4.18;;;;;;;5.41;54.34;100210.63;5103390;28;20429;-79
2022/04/04 09:07:15;;;;;;;5.37;4.80;;;;;;;5.38;54.01;100211.44;5103205;28;20230;-78
2022/04/04 09:09:45;;;;;;;4.60;4.20;;;;;;;5.41;55.18;100214.91;5103120;28;20223;-78
2022/04/04 09:12:20;;;;;;;4.67;4.03;;;;;;;5.43;53.94;100185.59;5103047;28;20200;-79
2022/04/04 09:14:48;;;;;;;7.03;4.40;;;;;;;5.43;54.53;100201.13;5102897;28;20215;-80
2022/04/04 09:17:16;;;;;;;6.13;4.13;;;;;;;5.51;55.20;100175.19;5102800;28;20219;-79
2022/04/04 09:19:46;;;;;;;4.37;4.07;;;;;;;5.47;55.24;100178.66;5083810;28;20306;-79
2022/04/04 09:22:15;;;;;;;5.97;4.57;;;;;;;5.61;55.39;100148.44;5082915;28;20683;-79
2022/04/04 09:24:50;;;;;;;5.60;4.47;;;;;;;5.49;54.91;100149.31;5082239;28;20251;-79
2022/04/04 09:27:21;;;;;;;4.93;4.50;;;;;;;5.58;55.34;100149.28;5085148;28;20209;-79
2022/04/04 09:29:48;;;;;;;6.07;4.03;;;;;;;5.56;54.65;100122.53;5085848;28;20189;-79
2022/04/04 09:32:15;;;;;;;4.90;4.50;;;;;;;5.55;54.29;100113.06;5085740;28;20209;-79
2022/04/04 09:35:08;;;;;;;5.03;4.57;;;;;;;5.55;56.67;100087.16;5081503;28;20233;-79
2022/04/04 09:37:36;;;;;;;5.17;4.70;;;;;;;5.49;57.26;100063.00;5082748;28;20193;-79
2022/04/04 09:40:09;;;;;;;5.53;4.80;;;;;;;5.46;58.27;100024.22;5080726;28;20225;-79
2022/04/04 09:42:36;;;;;;;5.37;4.87;;;;;;;5.27;59.56;99990.66;5081453;28;20234;-79
2022/04/04 09:45:06;;;;;;;5.67;4.87;;;;;;;5.15;59.23;99952.78;5082082;28;20224;-79
2022/04/04 09:47:50;;;;;;;6.13;5.27;;;;;;;5.09;61.70;99882.94;5112138;28;20250;-79
2022/04/04 09:50:36;;;;;;;5.83;5.43;;;;;;;4.87;63.67;99820.13;5116514;28;20234;-80
2022/04/04 09:53:07;;;;;;;6.17;5.67;;;;;;;4.89;63.89;99796.84;5117085;28;20188;-79
2022/04/04 09:55:36;;;;;;;6.73;6.13;;;;;;;5.04;64.59;99726.06;5115604;28;20292;-79
2022/04/04 09:58:09;;;;;;;5.50;5.10;;;;;;;5.03;64.95;99719.16;5117017;28;20234;-80
2022/04/04 10:00:44;;;;;;;6.10;5.60;;;;;;;4.78;64.70;99712.47;5115535;28;20259;-80
2022/04/04 10:03:17;;;;;;;6.53;6.10;;;;;;;4.85;65.47;99689.13;5116929;27;20176;-78
2022/04/04 10:05:47;;;;;;;7.83;7.03;;;;;;;5.01;65.82;99664.00;5116620;27;20245;-79
2022/04/04 10:08:17;;;;;;;5.80;5.30;;;;;;;4.99;65.48;99658.84;5117289;27;20222;-80
2022/04/04 10:10:51;;;;;;;8.20;5.90;;;;;;;5.16;65.37;99663.88;5117118;28;20263;-79
2022/04/04 10:13:17;;;;;;;6.10;5.60;;;;;;;5.18;64.67;99662.97;5104217;28;20196;-80
2022/04/04 10:15:45;;;;;;;6.20;5.70;;;;;;;5.16;65.08;99635.41;5100608;28;20221;-78
2022/04/04 10:18:12;;;;;;;6.20;5.70;;;;;;;5.07;64.26;99676.88;5098606;28;20204;-78
2022/04/04 10:20:38;;;;;;;6.50;6.00;;;;;;;5.11;64.17;99676.88;5098236;28;20284;-78
2022/04/04 10:23:11;;;;;;;6.77;6.27;;;;;;;5.08;64.04;99686.38;5095976;28;20196;-81
2022/04/04 10:25:38;;;;;;;6.47;5.87;;;;;;;4.96;63.71;99683.00;5095980;28;20255;-77
2022/04/04 10:28:05;;;;;;;6.13;5.53;;;;;;;4.81;63.76;99677.09;5095721;28;20204;-78
2022/04/04 10:30:34;;;;;;;7.03;6.53;;;;;;;4.96;64.56;99657.16;5096164;28;20192;-78
2022/04/04 10:33:01;;;;;;;6.70;6.20;;;;;;;4.93;66.01;99615.78;5097026;28;20283;-78
2022/04/04 10:35:29;;;;;;;6.30;5.70;;;;;;;4.96;65.22;99594.22;5095182;28;20224;-80
2022/04/04 10:38:04;;;;;;;6.50;6.00;;;;;;;4.97;65.79;99593.34;5097388;28;20208;-78
2022/04/04 10:40:33;;;;;;;6.73;6.13;;;;;;;5.07;65.01;99568.25;5096483;28;20208;-78
2022/04/04 10:43:11;;;;;;;6.70;6.23;;;;;;;5.16;65.01;99605.22;5097079;28;20202;-78
2022/04/04 10:45:51;;;;;;;6.30;5.90;;;;;;;5.30;64.04;99610.25;5093963;28;20709;-81
2022/04/04 10:48:20;;;;;;;7.40;6.80;;;;;;;5.41;64.53;99632.56;5095227;28;20677;-78
2022/04/04 10:50:47;;;;;;;7.20;6.60;;;;;;;5.53;64.44;99638.47;5097549;28;20201;-79
2022/04/04 10:53:14;;;;;;;7.13;6.53;;;;;;;5.56;64.37;99611.69;5096136;28;20200;-77
2022/04/04 10:55:52;;;;;;;6.73;6.33;;;;;;;5.43;63.78;99612.69;5095565;28;20673;-80
2022/04/04 10:58:27;;;;;;;7.47;6.80;;;;;;;5.49;64.37;99589.34;5096216;28;20680;-77
2022/04/04 11:00:58;;;;;;;6.90;6.30;;;;;;;5.36;64.63;99586.03;5095409;28;20562;-78
2022/04/04 11:03:29;;;;;;;7.60;6.90;;;;;;;5.32;65.68;99561.09;5096003;28;20255;-77
2022/04/04 11:09:11;;;;;;;6.73;6.20;;;;;;;5.42;66.90;99510.91;5096397;28;20254;-78
2022/04/04 11:11:48;;;;;;;7.43;6.70;;;;;;;5.37;68.17;99477.34;5096796;28;20285;-80
2022/04/04 11:14:41;;;;;;;7.63;7.07;;;;;;;5.09;69.29;99438.03;5096342;28;20585;-79
2022/04/04 11:17:36;;;;;;;8.00;7.30;;;;;;;4.82;71.53;99366.84;5095244;28;20247;-78
2022/04/04 11:20:33;;;;;;;8.07;7.47;;;;;;;4.87;72.47;99323.66;5075736;28;20213;-78
2022/04/04 11:23:01;;;;;;;8.77;7.90;;;;;;;4.74;73.21;99260.97;5069845;28;20229;-78
2022/04/04 11:25:33;;;;;;;8.73;8.03;;;;;;;4.81;75.65;99227.25;5074212;28;20229;-78
2022/04/04 11:28:02;;;;;;;10.23;8.47;;;;;;;4.82;75.34;99206.56;5074038;28;20208;-78
2022/04/04 11:30:28;;;;;;;8.73;8.10;;;;;;;4.78;74.93;99182.47;5073614;28;20667;-78
2022/04/04 11:32:57;;;;;;;8.70;8.10;;;;;;;4.84;76.08;99163.44;5074188;28;20212;-78
2022/04/04 11:35:28;;;;;;;10.47;8.70;;;;;;;4.95;76.24;99145.16;5081502;28;20220;-78
2022/04/04 11:37:56;;;;;;;8.57;7.90;;;;;;;4.77;75.38;99161.81;5094250;28;20202;-78
2022/04/04 11:40:26;;;;;;;9.67;8.80;;;;;;;4.86;76.76;99133.25;5094352;28;20220;-79
2022/04/04 11:42:54;;;;;;;9.03;8.37;;;;;;;4.88;75.93;99143.56;5094965;28;20200;-80
2022/04/04 11:45:24;;;;;;;8.93;8.33;;;;;;;4.78;77.38;99142.84;5083240;28;20224;-80